Time;durP1;ratioP1;P1;durP2;ratioP2;P2;SDS_P1;SDS_P2;PMS_P1;PMS_P2;Temp;Humidity;BMP_temperature;BMP_pressure;BME280_temperature;BME280_humidity;BME280_pressure;Samples;Min_cycle;Max_cycle;Signal;HPM_P1;HPM_P2
2023/01/18 00:02:18;;;;;;;25.42;13.25;;;;;;;-1.04;100.00;98591.88;6186495;23;20628;-72
2023/01/18 00:04:47;;;;;;;19.55;13.23;;;;;;;-1.06;100.00;98588.56;6185965;23;20216;-71
2023/01/18 00:07:16;;;;;;;15.75;10.82;;;;;;;-1.13;100.00;98588.50;6185941;23;20173;-73
2023/01/18 00:09:46;;;;;;;24.45;14.48;;;;;;;-1.09;100.00;98578.34;6185412;23;20166;-71
2023/01/18 00:12:15;;;;;;;21.52;16.80;;;;;;;-1.14;100.00;98572.75;6185757;23;20178;-71
2023/01/18 00:14:44;;;;;;;19.65;11.75;;;;;;;-1.06;100.00;98572.66;6185199;23;20176;-71
2023/01/18 00:17:13;;;;;;;25.17;14.02;;;;;;;-0.92;100.00;98569.97;6185075;23;20256;-72
2023/01/18 00:19:44;;;;;;;28.92;13.32;;;;;;;-0.80;100.00;98565.03;6185537;23;20173;-71
2023/01/18 00:22:13;;;;;;;24.83;14.82;;;;;;;-0.99;100.00;98562.94;6185506;23;20219;-71
2023/01/18 00:24:42;;;;;;;19.25;13.10;;;;;;;-1.16;100.00;98558.84;6185167;23;20507;-71
2023/01/18 00:27:11;;;;;;;29.05;14.60;;;;;;;-1.21;100.00;98554.06;6184963;23;20181;-72
2023/01/18 00:29:41;;;;;;;22.23;15.88;;;;;;;-1.15;100.00;98561.31;6185082;23;20181;-71
2023/01/18 00:32:33;;;;;;;22.38;15.75;;;;;;;-1.23;100.00;98561.41;6184723;23;20196;-70
2023/01/18 00:35:06;;;;;;;23.17;15.07;;;;;;;-1.30;100.00;98552.53;6186506;23;20174;-72
2023/01/18 00:37:35;;;;;;;23.55;16.00;;;;;;;-1.28;100.00;98561.16;6184764;23;20490;-71
2023/01/18 00:40:06;;;;;;;23.73;17.50;;;;;;;-1.31;100.00;98564.97;6184545;23;20216;-71
2023/01/18 00:45:23;;;;;;;26.08;13.60;;;;;;;-1.34;100.00;98565.34;6185226;23;20205;-72
2023/01/18 00:47:52;;;;;;;23.50;16.63;;;;;;;-1.40;100.00;98568.72;6184480;23;20272;-72
2023/01/18 00:50:23;;;;;;;27.60;16.08;;;;;;;-1.37;100.00;98573.69;6185120;23;20185;-71
2023/01/18 00:52:55;;;;;;;21.25;15.48;;;;;;;-1.32;100.00;98568.66;6184830;23;20165;-71
2023/01/18 00:55:26;;;;;;;25.67;14.73;;;;;;;-1.37;100.00;98567.53;6184570;23;20189;-71
2023/01/18 00:57:55;;;;;;;20.30;13.63;;;;;;;-1.33;100.00;98567.00;6185022;23;20224;-72
2023/01/18 01:00:27;;;;;;;24.33;14.30;;;;;;;-1.40;100.00;98570.53;6185356;23;20169;-71
2023/01/18 01:02:57;;;;;;;25.50;15.40;;;;;;;-1.45;100.00;98568.44;6185544;23;20166;-72
2023/01/18 01:08:24;;;;;;;18.13;14.18;;;;;;;-1.42;100.00;98584.00;6151299;23;20173;-71
2023/01/18 01:11:04;;;;;;;18.92;13.95;;;;;;;-1.41;100.00;98593.63;6185687;23;20653;-72
2023/01/18 01:27:29;;;;;;;18.67;14.18;;;;;;;-1.32;100.00;98610.28;6184081;23;20510;-71
2023/01/18 01:29:58;;;;;;;24.48;14.73;;;;;;;-1.42;100.00;98610.53;6184577;23;20177;-72
2023/01/18 01:32:27;;;;;;;21.50;14.15;;;;;;;-1.46;100.00;98624.34;6185489;23;20180;-72
2023/01/18 01:34:56;;;;;;;25.63;14.35;;;;;;;-1.44;100.00;98628.44;6185068;23;20565;-73
2023/01/18 01:37:27;;;;;;;16.05;14.38;;;;;;;-1.34;100.00;98633.50;6185191;23;20208;-71
2023/01/18 01:39:56;;;;;;;20.48;14.63;;;;;;;-1.34;100.00;98630.84;6185310;23;20173;-72
2023/01/18 01:42:25;;;;;;;21.83;15.88;;;;;;;-1.26;100.00;98637.91;6184826;23;20636;-72
2023/01/18 01:44:55;;;;;;;21.05;14.30;;;;;;;-1.31;100.00;98639.25;6184486;23;20244;-72
2023/01/18 01:47:43;;;;;;;21.25;14.40;;;;;;;-1.23;100.00;98645.50;6184784;23;20244;-71
2023/01/18 01:50:21;;;;;;;18.42;13.70;;;;;;;-1.17;100.00;98639.47;6184242;23;20197;-72
2023/01/18 01:52:52;;;;;;;21.80;13.20;;;;;;;-0.97;100.00;98638.72;6184218;23;20219;-72
2023/01/18 01:55:24;;;;;;;21.95;13.45;;;;;;;-0.90;100.00;98641.47;6184165;23;20189;-72
2023/01/18 01:57:58;;;;;;;27.17;16.15;;;;;;;-0.95;100.00;98641.19;6184196;23;20240;-72
2023/01/18 02:00:28;;;;;;;20.75;14.55;;;;;;;-0.92;100.00;98648.81;6184025;23;20505;-72
2023/01/18 02:03:00;;;;;;;19.98;13.80;;;;;;;-0.87;100.00;98657.03;6183958;23;20284;-72
2023/01/18 02:05:31;;;;;;;16.33;11.05;;;;;;;-0.82;100.00;98649.34;6183720;23;20189;-72
2023/01/18 02:08:03;;;;;;;16.63;13.27;;;;;;;-0.83;100.00;98653.03;6183938;23;20166;-72
2023/01/18 02:10:32;;;;;;;21.75;13.95;;;;;;;-0.79;100.00;98661.44;6183894;23;20162;-72
2023/01/18 02:13:02;;;;;;;20.40;13.55;;;;;;;-0.75;100.00;98666.19;6183865;23;20169;-72
2023/01/18 02:15:38;;;;;;;17.52;12.38;;;;;;;-0.69;100.00;98654.00;6185231;23;20217;-73
2023/01/18 02:18:16;;;;;;;17.08;12.60;;;;;;;-0.72;100.00;98665.81;6184202;23;20228;-72
2023/01/18 02:21:18;;;;;;;18.92;12.10;;;;;;;-0.75;100.00;98658.22;6184769;23;20188;-73
2023/01/18 02:24:32;;;;;;;19.35;13.45;;;;;;;-0.75;100.00;98655.56;6182178;23;20173;-72
2023/01/18 02:27:13;;;;;;;18.80;11.95;;;;;;;-0.68;100.00;98651.19;6183507;23;20189;-72
2023/01/18 02:29:58;;;;;;;19.20;13.57;;;;;;;-0.47;100.00;98656.53;6183921;23;20200;-72
2023/01/18 02:32:43;;;;;;;14.73;10.82;;;;;;;-0.59;100.00;98665.19;6183887;23;20161;-71
2023/01/18 02:35:15;;;;;;;19.85;12.98;;;;;;;-0.58;100.00;98662.31;6183688;23;20570;-71
2023/01/18 02:37:51;;;;;;;20.25;13.32;;;;;;;-0.65;100.00;98656.13;6183557;23;20176;-74
2023/01/18 02:40:28;;;;;;;18.73;12.88;;;;;;;-0.48;100.00;98649.56;6184053;23;20165;-71
2023/01/18 02:48:41;;;;;;;22.88;14.43;;;;;;;-0.41;100.00;98654.97;6183476;23;20171;-71
2023/01/18 02:51:11;;;;;;;14.20;12.10;;;;;;;-0.62;100.00;98645.09;6184111;23;20547;-71
2023/01/18 02:53:43;;;;;;;19.75;12.93;;;;;;;-0.61;100.00;98648.59;6183734;23;20556;-71
2023/01/18 02:56:16;;;;;;;16.13;11.52;;;;;;;-0.62;100.00;98650.41;6183506;23;20189;-72
2023/01/18 02:58:49;;;;;;;15.65;11.50;;;;;;;-0.62;100.00;98660.22;6183892;23;20188;-72
2023/01/18 03:01:25;;;;;;;22.42;11.98;;;;;;;-0.70;100.00;98663.81;6185571;23;20149;-71
2023/01/18 03:03:59;;;;;;;15.95;11.05;;;;;;;-0.70;100.00;98666.47;6184253;23;20168;-70
2023/01/18 03:06:29;;;;;;;18.63;10.02;;;;;;;-0.77;100.00;98662.06;6184112;23;20189;-73
2023/01/18 03:09:00;;;;;;;15.60;10.93;;;;;;;-0.75;100.00;98671.50;6184632;23;20669;-72
2023/01/18 03:11:39;;;;;;;21.50;13.23;;;;;;;-0.87;100.00;98672.97;6186143;23;20249;-71
2023/01/18 03:14:17;;;;;;;22.50;12.00;;;;;;;-0.81;100.00;98663.44;6187663;23;20179;-71
2023/01/18 03:16:59;;;;;;;14.70;11.23;;;;;;;-0.91;100.00;98669.03;6188047;23;20637;-72
2023/01/18 03:25:16;;;;;;;13.98;11.30;;;;;;;-0.88;100.00;98661.53;6188067;23;20217;-71
2023/01/18 03:33:43;;;;;;;18.13;12.68;;;;;;;-0.75;100.00;98665.38;6190792;23;20186;-72
2023/01/18 03:36:17;;;;;;;17.23;11.55;;;;;;;-0.71;100.00;98661.31;6189780;23;20212;-71
2023/01/18 03:38:50;;;;;;;15.55;11.50;;;;;;;-0.78;100.00;98666.56;6187080;23;20164;-72
2023/01/18 03:41:22;;;;;;;15.60;11.18;;;;;;;-0.93;100.00;98684.34;6185382;23;20217;-71
2023/01/18 03:43:54;;;;;;;19.77;13.20;;;;;;;-0.84;100.00;98683.22;6185505;23;20513;-71
2023/01/18 03:46:30;;;;;;;16.35;11.43;;;;;;;-0.97;100.00;98683.06;6185313;23;20193;-72
2023/01/18 03:49:01;;;;;;;15.95;12.23;;;;;;;-0.95;100.00;98671.22;6186724;23;20681;-70
2023/01/18 03:51:46;;;;;;;16.10;11.10;;;;;;;-0.88;100.00;98679.31;6185596;23;20555;-73
2023/01/18 03:54:20;;;;;;;16.27;11.48;;;;;;;-0.90;100.00;98684.78;6185385;23;20169;-71
2023/01/18 03:56:53;;;;;;;14.32;10.93;;;;;;;-0.93;100.00;98681.69;6184895;23;20671;-69
2023/01/18 03:59:23;;;;;;;15.32;11.00;;;;;;;-0.87;100.00;98675.63;6185218;23;20240;-71
2023/01/18 04:06:12;;;;;;;11.95;10.63;;;;;;;-0.79;100.00;98664.91;6186315;23;20196;-71
2023/01/18 04:08:41;;;;;;;12.13;10.50;;;;;;;-0.76;100.00;98666.38;6185415;23;20172;-72
2023/01/18 04:11:10;;;;;;;17.58;12.45;;;;;;;-0.77;100.00;98676.16;6185368;23;20243;-70
2023/01/18 04:13:40;;;;;;;16.52;10.90;;;;;;;-0.55;100.00;98677.09;6185240;23;20173;-71
2023/01/18 04:16:09;;;;;;;15.80;10.75;;;;;;;-0.37;100.00;98671.34;6184858;23;20247;-73
2023/01/18 04:18:38;;;;;;;19.20;10.90;;;;;;;-0.34;100.00;98668.34;6185045;23;20201;-72
2023/01/18 04:21:08;;;;;;;11.63;9.70;;;;;;;-0.43;100.00;98673.75;6184996;23;20220;-72
2023/01/18 04:23:38;;;;;;;17.60;10.52;;;;;;;-0.57;100.00;98669.28;6185114;23;20196;-71
2023/01/18 04:26:07;;;;;;;14.75;11.32;;;;;;;-0.51;100.00;98668.56;6185087;23;20189;-72
2023/01/18 04:28:36;;;;;;;13.20;9.98;;;;;;;-0.22;99.64;98667.66;6185873;23;20227;-73
2023/01/18 04:31:06;;;;;;;15.05;11.80;;;;;;;-0.22;98.73;98672.97;6185426;23;20201;-72
2023/01/18 04:33:35;;;;;;;17.63;10.13;;;;;;;-0.39;98.79;98668.09;6191915;23;20580;-72
2023/01/18 04:36:05;;;;;;;14.20;9.65;;;;;;;-0.50;98.35;98680.00;6193100;23;20200;-72
2023/01/18 04:38:34;;;;;;;19.70;12.77;;;;;;;-0.55;98.97;98671.75;6191020;23;20177;-72
2023/01/18 04:41:05;;;;;;;14.40;10.00;;;;;;;-0.57;98.89;98676.44;6189294;23;20174;-73
2023/01/18 04:43:35;;;;;;;15.05;9.52;;;;;;;-0.53;98.51;98670.56;6188553;23;20161;-71
2023/01/18 04:46:05;;;;;;;18.52;10.35;;;;;;;-0.53;98.29;98670.56;6187998;23;20641;-72
2023/01/18 04:48:34;;;;;;;13.63;9.82;;;;;;;-0.66;98.09;98664.25;6187839;23;20173;-72
2023/01/18 04:51:03;;;;;;;15.23;9.52;;;;;;;-0.66;98.34;98670.41;6187449;23;20181;-73
2023/01/18 04:53:34;;;;;;;13.55;10.98;;;;;;;-0.68;98.33;98674.25;6187687;23;20173;-73
2023/01/18 04:56:05;;;;;;;10.90;8.82;;;;;;;-0.65;98.48;98681.84;6188283;23;20285;-73
2023/01/18 04:58:34;;;;;;;14.45;10.70;;;;;;;-0.69;99.03;98684.06;6188396;23;20625;-74
2023/01/18 05:01:05;;;;;;;11.93;9.05;;;;;;;-0.66;98.54;98680.19;6185360;23;20256;-70
2023/01/18 05:03:36;;;;;;;15.23;10.90;;;;;;;-0.60;98.23;98674.97;6185428;23;20220;-72
2023/01/18 05:06:07;;;;;;;14.60;10.85;;;;;;;-0.60;97.93;98685.59;6184997;23;20193;-72
2023/01/18 05:08:39;;;;;;;22.98;11.90;;;;;;;-0.73;97.50;98687.25;6184978;23;20189;-73
2023/01/18 05:11:12;;;;;;;16.15;10.93;;;;;;;-0.65;98.32;98687.16;6185108;23;20170;-70
2023/01/18 05:13:42;;;;;;;13.63;9.57;;;;;;;-0.69;97.80;98692.03;6185087;23;20223;-72
2023/01/18 05:16:15;;;;;;;20.67;11.13;;;;;;;-0.67;97.60;98705.94;6187646;23;20196;-72
2023/01/18 05:18:45;;;;;;;18.70;11.30;;;;;;;-0.71;97.73;98706.47;6187964;23;20189;-71
2023/01/18 05:21:15;;;;;;;25.83;11.30;;;;;;;-0.41;97.72;98715.25;6187143;23;20169;-72
2023/01/18 05:23:44;;;;;;;11.45;9.30;;;;;;;-0.45;96.42;98715.63;6187931;23;20173;-72
2023/01/18 05:26:18;;;;;;;13.35;10.45;;;;;;;-0.32;96.68;98716.81;6189586;23;20185;-71
2023/01/18 05:28:47;;;;;;;12.55;8.95;;;;;;;-0.40;95.74;98714.25;6193257;23;20153;-69
2023/01/18 05:31:19;;;;;;;9.70;8.63;;;;;;;-0.41;95.40;98720.56;6191931;23;20170;-72
2023/01/18 05:33:49;;;;;;;11.55;9.25;;;;;;;-0.43;95.05;98724.22;6191375;23;20169;-71
2023/01/18 05:36:18;;;;;;;9.63;7.90;;;;;;;-0.56;94.86;98724.06;6191580;23;20189;-72
2023/01/18 05:38:47;;;;;;;12.90;10.55;;;;;;;-0.51;95.17;98726.16;6192951;23;20521;-70
2023/01/18 05:41:19;;;;;;;21.42;19.13;;;;;;;-0.49;95.09;98737.44;6190874;23;20174;-72
2023/01/18 05:43:49;;;;;;;11.30;8.73;;;;;;;-0.50;94.31;98743.75;6190596;23;20165;-72
2023/01/18 05:46:18;;;;;;;14.70;10.40;;;;;;;-0.66;94.85;98742.09;6184282;23;20248;-72
2023/01/18 05:48:47;;;;;;;12.73;9.65;;;;;;;-0.56;94.76;98745.31;6183900;23;20193;-72
2023/01/18 05:51:16;;;;;;;11.10;8.70;;;;;;;-0.63;94.69;98739.06;6184382;23;20557;-71
2023/01/18 05:53:45;;;;;;;13.40;8.48;;;;;;;-0.68;94.78;98741.47;6184339;23;20173;-71
2023/01/18 05:56:14;;;;;;;12.55;10.82;;;;;;;-0.66;95.18;98743.94;6184418;23;20193;-70
2023/01/18 05:58:45;;;;;;;8.15;7.35;;;;;;;-0.62;93.95;98743.38;6184463;23;20161;-73
2023/01/18 06:01:14;;;;;;;11.07;7.05;;;;;;;-0.60;94.37;98738.72;6190923;23;20150;-72
2023/01/18 06:03:44;;;;;;;13.98;7.95;;;;;;;-0.61;94.08;98739.72;6185677;23;20554;-71
2023/01/18 06:06:15;;;;;;;9.02;6.78;;;;;;;-0.64;93.51;98734.78;6186225;23;20228;-71
2023/01/18 06:08:44;;;;;;;17.90;7.05;;;;;;;-0.66;94.05;98736.78;6186948;23;20532;-72
2023/01/18 06:11:13;;;;;;;8.27;6.28;;;;;;;-0.62;94.72;98745.22;6186016;23;20173;-72
2023/01/18 06:13:44;;;;;;;6.43;5.50;;;;;;;-0.47;94.31;98746.03;6184501;23;20166;-73
2023/01/18 06:16:13;;;;;;;9.30;7.05;;;;;;;-0.62;94.08;98746.03;6184340;23;20243;-71
2023/01/18 06:18:42;;;;;;;12.05;7.72;;;;;;;-0.67;94.17;98751.06;6184952;23;20548;-71
2023/01/18 06:21:12;;;;;;;9.68;6.90;;;;;;;-0.70;93.74;98756.75;6183947;23;20174;-71
2023/01/18 06:23:41;;;;;;;9.73;7.95;;;;;;;-0.58;92.44;98757.94;6183656;23;20173;-72
2023/01/18 06:26:10;;;;;;;12.60;6.50;;;;;;;-0.65;93.03;98765.00;6183784;23;20228;-71
2023/01/18 06:28:40;;;;;;;8.05;5.35;;;;;;;-0.63;93.33;98772.81;6184123;23;20649;-74
2023/01/18 06:31:10;;;;;;;10.77;6.68;;;;;;;-0.63;93.69;98773.59;6184328;23;20232;-72
2023/01/18 06:33:39;;;;;;;11.57;6.78;;;;;;;-0.46;93.01;98775.09;6183927;23;20166;-73
2023/01/18 06:36:09;;;;;;;10.20;7.78;;;;;;;-0.41;92.76;98781.69;6183223;23;20201;-71
2023/01/18 06:38:38;;;;;;;10.77;8.23;;;;;;;-0.44;92.28;98786.34;6183832;23;20169;-73
2023/01/18 06:41:08;;;;;;;13.38;7.85;;;;;;;-0.50;92.25;98787.09;6183341;23;20193;-70
2023/01/18 06:43:37;;;;;;;12.50;8.25;;;;;;;-0.46;92.19;98788.38;6183226;23;20204;-71
2023/01/18 06:46:08;;;;;;;10.10;7.10;;;;;;;-0.36;92.44;98797.91;6183046;23;20588;-73
2023/01/18 06:48:39;;;;;;;7.55;6.05;;;;;;;-0.31;92.56;98801.66;6183340;23;20192;-75
2023/01/18 06:51:08;;;;;;;8.48;6.35;;;;;;;-0.29;91.89;98804.16;6183619;23;20168;-70
2023/01/18 06:53:37;;;;;;;7.07;6.40;;;;;;;-0.25;92.43;98792.13;6185234;23;20205;-72
2023/01/18 06:56:09;;;;;;;8.13;6.43;;;;;;;-0.33;91.39;98801.00;6183670;23;20189;-73
2023/01/18 06:58:38;;;;;;;8.45;6.43;;;;;;;-0.42;92.38;98794.16;6183785;23;20162;-72
2023/01/18 07:01:08;;;;;;;7.88;5.10;;;;;;;-0.49;92.34;98799.38;6183557;23;20177;-73
2023/01/18 07:03:39;;;;;;;8.90;6.00;;;;;;;-0.27;92.71;98802.94;6183864;23;20681;-72
2023/01/18 07:06:08;;;;;;;9.30;6.32;;;;;;;-0.29;92.51;98799.63;6183653;23;20661;-72
2023/01/18 07:08:38;;;;;;;10.60;6.85;;;;;;;-0.32;91.83;98809.81;6183564;23;20189;-74
2023/01/18 07:11:10;;;;;;;9.60;7.00;;;;;;;-0.30;91.34;98810.47;6183699;23;20561;-74
2023/01/18 07:13:42;;;;;;;16.90;6.78;;;;;;;-0.33;91.74;98810.81;6185126;23;20154;-73
2023/01/18 07:16:16;;;;;;;10.60;7.97;;;;;;;-0.17;90.71;98811.47;6183634;23;20672;-73
2023/01/18 07:18:49;;;;;;;6.95;5.72;;;;;;;-0.24;90.69;98815.06;6183731;23;20161;-72
2023/01/18 07:21:21;;;;;;;9.52;5.57;;;;;;;-0.22;90.84;98818.34;6183476;23;20539;-73
2023/01/18 07:23:51;;;;;;;13.10;6.70;;;;;;;-0.19;90.20;98823.28;6183392;23;20244;-73
2023/01/18 07:26:20;;;;;;;13.23;9.75;;;;;;;-0.21;91.01;98817.34;6183724;23;20189;-72
2023/01/18 07:28:49;;;;;;;47.40;42.33;;;;;;;-0.23;90.69;98819.34;6183304;23;20193;-73
2023/01/18 07:31:19;;;;;;;35.60;32.00;;;;;;;-0.22;90.78;98815.69;6185369;23;20181;-72
2023/01/18 07:33:51;;;;;;;15.45;11.35;;;;;;;-0.20;91.02;98821.66;6184084;23;20684;-71
2023/01/18 07:36:21;;;;;;;12.25;8.98;;;;;;;-0.11;90.43;98825.84;6183319;23;20194;-71
2023/01/18 07:38:50;;;;;;;13.05;6.05;;;;;;;-0.06;89.73;98826.13;6184797;23;20208;-72
2023/01/18 07:41:21;;;;;;;11.85;5.53;;;;;;;0.03;89.23;98830.34;6183136;23;20216;-72
2023/01/18 07:43:52;;;;;;;15.07;6.75;;;;;;;-0.03;88.77;98831.91;6183323;23;20197;-72
2023/01/18 07:46:24;;;;;;;8.43;7.63;;;;;;;0.06;88.64;98839.75;6183392;23;20658;-73
2023/01/18 07:48:55;;;;;;;10.90;6.97;;;;;;;0.06;88.36;98834.44;6183294;23;20248;-72
2023/01/18 07:51:24;;;;;;;10.40;5.95;;;;;;;0.03;88.82;98833.00;6184487;23;20169;-72
2023/01/18 07:53:54;;;;;;;10.93;6.20;;;;;;;0.05;89.39;98835.47;6184216;23;20193;-71
2023/01/18 07:56:24;;;;;;;10.55;5.63;;;;;;;0.14;89.41;98832.53;6185348;23;20189;-72
2023/01/18 07:58:54;;;;;;;5.35;4.43;;;;;;;0.14;89.21;98842.34;6185760;23;20170;-72
2023/01/18 08:01:24;;;;;;;9.30;5.53;;;;;;;0.28;88.70;98837.00;6185837;23;20185;-71
2023/01/18 08:03:54;;;;;;;9.75;6.90;;;;;;;0.38;87.68;98826.88;6185508;23;20681;-73
2023/01/18 08:06:26;;;;;;;7.40;5.00;;;;;;;0.35;88.07;98829.09;6185301;23;20193;-72
2023/01/18 08:08:56;;;;;;;7.53;6.22;;;;;;;0.32;87.61;98822.31;6185350;23;20264;-72
2023/01/18 08:11:25;;;;;;;8.43;5.85;;;;;;;0.39;88.04;98820.53;6185505;23;20162;-70
2023/01/18 08:13:54;;;;;;;7.88;4.60;;;;;;;0.42;87.40;98825.50;6184990;23;20174;-72
2023/01/18 08:16:25;;;;;;;10.85;6.40;;;;;;;0.50;86.78;98819.22;6185468;23;20554;-71
2023/01/18 08:18:56;;;;;;;8.82;5.47;;;;;;;0.52;86.95;98827.03;6185478;23;20169;-71
2023/01/18 08:21:25;;;;;;;5.82;4.80;;;;;;;0.61;86.18;98824.06;6187137;23;20146;-71
2023/01/18 08:23:54;;;;;;;7.10;6.38;;;;;;;0.59;86.47;98825.25;6185505;23;20173;-70
2023/01/18 08:26:24;;;;;;;12.00;6.35;;;;;;;0.72;86.61;98830.72;6185359;23;20541;-71
2023/01/18 08:28:55;;;;;;;12.50;7.57;;;;;;;0.78;85.76;98825.47;6186788;23;20208;-70
2023/01/18 08:31:24;;;;;;;10.85;7.43;;;;;;;0.90;86.07;98831.13;6185053;23;20250;-72
2023/01/18 08:33:55;;;;;;;16.83;6.32;;;;;;;0.96;84.55;98835.69;6184927;23;20265;-73
2023/01/18 08:36:25;;;;;;;8.35;6.43;;;;;;;0.93;84.25;98835.22;6186551;23;20645;-73
2023/01/18 08:38:56;;;;;;;7.90;5.70;;;;;;;1.03;83.70;98830.41;6184840;23;20224;-74
2023/01/18 08:41:29;;;;;;;10.52;6.78;;;;;;;1.09;83.32;98838.47;6185072;23;20169;-72
2023/01/18 08:43:59;;;;;;;17.02;7.75;;;;;;;1.16;82.89;98844.66;6184781;23;20634;-73
2023/01/18 08:46:28;;;;;;;8.80;6.22;;;;;;;1.14;82.98;98836.03;6184709;23;20193;-72
2023/01/18 08:48:59;;;;;;;9.65;6.40;;;;;;;1.24;82.87;98839.22;6184362;23;20528;-72
2023/01/18 08:51:28;;;;;;;6.90;5.43;;;;;;;1.21;82.36;98846.78;6184962;23;20247;-72
2023/01/18 08:53:58;;;;;;;9.18;5.70;;;;;;;1.25;82.50;98848.03;6185310;23;20177;-73
2023/01/18 08:56:28;;;;;;;7.70;5.30;;;;;;;1.20;82.09;98845.94;6185137;23;20189;-72
2023/01/18 08:58:57;;;;;;;8.20;5.88;;;;;;;1.41;82.37;98853.06;6185089;23;20171;-73
2023/01/18 09:01:27;;;;;;;10.68;7.22;;;;;;;1.46;82.24;98855.16;6185263;23;20521;-73
2023/01/18 09:03:58;;;;;;;9.20;5.25;;;;;;;1.69;81.58;98850.41;6185025;23;20174;-71
2023/01/18 09:06:30;;;;;;;6.50;5.18;;;;;;;1.69;80.76;98861.88;6185146;23;20688;-73
2023/01/18 09:09:00;;;;;;;9.48;5.55;;;;;;;1.75;79.78;98855.78;6184699;23;20197;-71
2023/01/18 09:11:29;;;;;;;22.33;6.85;;;;;;;1.81;80.41;98853.34;6184727;23;20199;-74
2023/01/18 09:14:00;;;;;;;7.75;6.22;;;;;;;1.88;79.88;98852.38;6184770;23;20180;-72
2023/01/18 09:16:31;;;;;;;9.23;5.45;;;;;;;1.91;80.00;98854.66;6186285;23;20224;-73
2023/01/18 09:19:05;;;;;;;11.13;5.57;;;;;;;1.94;79.70;98851.56;6184478;23;20169;-72
2023/01/18 09:21:36;;;;;;;12.98;5.78;;;;;;;1.85;79.80;98858.09;6184503;23;20165;-74
2023/01/18 09:24:07;;;;;;;10.15;5.05;;;;;;;1.78;80.07;98873.25;6185987;23;20656;-72
2023/01/18 09:26:36;;;;;;;7.35;5.60;;;;;;;1.73;80.85;98876.50;6184323;23;20201;-72
2023/01/18 09:29:05;;;;;;;7.95;6.10;;;;;;;1.67;81.40;98876.44;6184503;23;20682;-73
2023/01/18 09:31:35;;;;;;;9.63;5.18;;;;;;;1.83;80.58;98878.81;6184725;23;20180;-72
2023/01/18 09:34:05;;;;;;;11.45;5.30;;;;;;;1.90;79.54;98878.84;6184691;23;20178;-72
2023/01/18 09:36:49;;;;;;;11.93;5.05;;;;;;;2.00;79.24;98881.97;6185730;23;20212;-73
2023/01/18 09:40:13;;;;;;;22.50;7.95;;;;;;;2.06;78.89;98879.38;6185188;23;20229;-72
2023/01/18 09:42:44;;;;;;;6.30;4.90;;;;;;;1.97;79.02;98880.53;6187687;23;20676;-74
2023/01/18 09:45:25;;;;;;;5.30;4.40;;;;;;;1.99;78.60;98883.81;6185207;23;20193;-73
2023/01/18 09:48:05;;;;;;;8.52;5.05;;;;;;;1.89;79.23;98887.88;6185281;23;20561;-73
2023/01/18 09:50:42;;;;;;;7.25;6.05;;;;;;;1.91;79.38;98888.50;6185186;23;20251;-73
2023/01/18 09:53:23;;;;;;;8.50;4.93;;;;;;;2.05;79.49;98883.03;6190971;23;20165;-73
2023/01/18 09:55:59;;;;;;;8.85;5.80;;;;;;;2.30;78.61;98893.25;6194909;23;20197;-72
2023/01/18 09:58:42;;;;;;;13.18;4.47;;;;;;;2.39;77.61;98884.88;6197702;23;20164;-74
2023/01/18 10:01:16;;;;;;;13.82;6.05;;;;;;;2.35;77.02;98888.13;6197006;23;20170;-73
2023/01/18 10:03:52;;;;;;;7.30;4.32;;;;;;;2.24;77.61;98891.34;6196536;23;20162;-74
2023/01/18 10:06:27;;;;;;;5.13;4.53;;;;;;;2.23;76.95;98889.72;6195816;23;20224;-71
2023/01/18 10:09:03;;;;;;;8.45;5.85;;;;;;;2.38;77.75;98887.72;6186011;23;20169;-74
2023/01/18 10:11:42;;;;;;;5.63;4.50;;;;;;;2.44;77.22;98900.28;6185407;23;20215;-73
2023/01/18 10:14:19;;;;;;;4.82;4.00;;;;;;;2.52;76.38;98895.59;6185650;23;20216;-73
2023/01/18 10:16:56;;;;;;;11.63;4.55;;;;;;;2.71;76.35;98902.03;6185400;23;20216;-72
2023/01/18 10:19:28;;;;;;;6.55;4.90;;;;;;;2.97;75.05;98896.78;6186395;23;20145;-72
2023/01/18 10:22:06;;;;;;;10.13;6.30;;;;;;;3.02;74.33;98890.84;6194449;23;20469;-74
2023/01/18 10:24:44;;;;;;;6.60;4.43;;;;;;;3.02;74.61;98901.53;6184730;23;20165;-74
2023/01/18 10:27:30;;;;;;;10.43;8.30;;;;;;;3.04;73.87;98900.31;6186409;23;20209;-74
2023/01/18 10:30:14;;;;;;;8.10;6.00;;;;;;;3.14;73.44;98901.75;6184875;23;20181;-72
2023/01/18 10:32:49;;;;;;;20.90;10.20;;;;;;;3.09;73.20;98896.19;6185214;23;20162;-72
2023/01/18 10:35:26;;;;;;;9.73;7.05;;;;;;;2.85;73.63;98901.06;6184547;23;20248;-71
2023/01/18 10:38:00;;;;;;;13.55;9.88;;;;;;;2.75;74.46;98900.63;6185183;23;20169;-71
2023/01/18 10:40:33;;;;;;;7.50;5.90;;;;;;;2.96;74.36;98903.16;6186617;23;20601;-72
2023/01/18 10:43:03;;;;;;;30.17;18.25;;;;;;;3.20;72.64;98903.59;6186184;23;20174;-71
2023/01/18 10:45:35;;;;;;;11.10;6.13;;;;;;;2.95;73.81;98906.84;6186825;23;20520;-72
2023/01/18 10:48:27;;;;;;;7.43;4.78;;;;;;;3.02;73.30;98905.00;6185368;23;20165;-72
2023/01/18 10:50:59;;;;;;;6.70;6.13;;;;;;;3.20;73.82;98903.59;6184587;23;20189;-71
2023/01/18 10:53:32;;;;;;;7.18;5.90;;;;;;;3.45;72.66;98902.81;6187191;23;20166;-71
2023/01/18 10:56:05;;;;;;;5.38;4.65;;;;;;;3.29;72.17;98908.53;6185990;23;20589;-71
2023/01/18 10:58:44;;;;;;;9.25;5.35;;;;;;;2.97;73.47;98899.44;6186233;23;20150;-71
2023/01/18 11:01:21;;;;;;;16.15;14.23;;;;;;;2.81;73.67;98905.16;6184151;23;20169;-71
2023/01/18 11:03:54;;;;;;;31.67;20.33;;;;;;;2.72;74.56;98905.53;6183705;23;20165;-72
2023/01/18 11:06:25;;;;;;;9.93;8.93;;;;;;;2.91;74.79;98910.94;6183599;23;20193;-71
2023/01/18 11:08:55;;;;;;;15.55;13.90;;;;;;;2.93;75.29;98900.88;6183597;23;20181;-72
2023/01/18 11:14:25;;;;;;;9.95;6.03;;;;;;;3.02;74.96;98907.69;6182405;23;20165;-72
2023/01/18 11:17:11;;;;;;;16.42;6.13;;;;;;;3.08;74.74;98907.91;6184317;23;20197;-71
2023/01/18 11:19:41;;;;;;;8.10;5.70;;;;;;;3.15;74.24;98911.44;6183597;23;20164;-72
2023/01/18 11:22:13;;;;;;;10.25;8.38;;;;;;;3.00;74.43;98904.38;6183895;23;20296;-73
2023/01/18 11:24:43;;;;;;;8.75;5.25;;;;;;;2.96;74.66;98913.81;6185481;23;20154;-73
2023/01/18 11:27:15;;;;;;;7.82;6.60;;;;;;;2.83;74.58;98903.13;6183881;23;20176;-75
2023/01/18 11:29:50;;;;;;;6.35;5.85;;;;;;;2.67;75.19;98910.63;6184067;23;20707;-73
2023/01/18 11:32:24;;;;;;;13.73;6.55;;;;;;;2.71;75.78;98904.69;6185983;23;20633;-73
2023/01/18 11:34:55;;;;;;;8.00;5.40;;;;;;;2.86;75.57;98908.03;6185625;23;20193;-73
2023/01/18 11:37:33;;;;;;;9.90;5.85;;;;;;;2.85;74.79;98911.75;6185596;23;20162;-72
2023/01/18 11:40:27;;;;;;;7.28;5.10;;;;;;;2.83;74.97;98924.47;6185740;23;20169;-73
2023/01/18 11:43:02;;;;;;;6.40;5.50;;;;;;;2.85;75.19;98932.31;6186900;23;20173;-72
2023/01/18 11:45:36;;;;;;;7.28;6.22;;;;;;;2.85;75.11;98933.13;6186548;23;20184;-71
2023/01/18 11:48:12;;;;;;;9.75;8.77;;;;;;;2.77;75.24;98935.13;6186916;23;20515;-71
2023/01/18 11:50:45;;;;;;;13.27;11.85;;;;;;;2.62;76.03;98937.94;6186273;23;20243;-72
2023/01/18 11:53:25;;;;;;;15.60;13.93;;;;;;;2.66;76.25;98933.88;6187078;23;20235;-73
2023/01/18 11:56:05;;;;;;;13.20;6.22;;;;;;;2.71;75.91;98926.06;6185701;23;20587;-72
2023/01/18 11:58:36;;;;;;;7.72;5.70;;;;;;;2.81;75.52;98926.50;6185544;23;20165;-74
2023/01/18 12:01:22;;;;;;;10.38;6.15;;;;;;;2.78;75.10;98932.28;6187149;23;20466;-72
2023/01/18 12:03:59;;;;;;;6.70;5.18;;;;;;;2.79;75.29;98933.91;6185011;23;20215;-73
2023/01/18 12:06:38;;;;;;;7.38;5.82;;;;;;;2.91;74.61;98929.63;6184605;23;20530;-71
2023/01/18 12:09:25;;;;;;;7.28;6.00;;;;;;;2.88;74.40;98932.72;6185137;23;20684;-72
2023/01/18 12:12:08;;;;;;;13.82;9.35;;;;;;;2.91;73.28;98943.00;6185463;23;20528;-71
2023/01/18 12:15:02;;;;;;;41.97;24.23;;;;;;;2.72;74.33;98942.91;6185463;23;20219;-72
2023/01/18 12:17:47;;;;;;;22.15;14.73;;;;;;;2.66;74.90;98939.22;6185049;23;20166;-72
2023/01/18 12:20:24;;;;;;;18.55;10.00;;;;;;;2.75;74.89;98947.88;6185346;23;20169;-72
2023/01/18 12:23:27;;;;;;;6.88;4.93;;;;;;;2.74;73.68;98947.06;6185596;23;20170;-73
2023/01/18 12:26:07;;;;;;;12.65;8.52;;;;;;;2.66;73.98;98949.91;6185327;23;20212;-75
2023/01/18 12:29:03;;;;;;;9.10;4.85;;;;;;;2.61;73.98;98947.00;6186437;23;20158;-72
2023/01/18 12:31:47;;;;;;;7.53;5.00;;;;;;;2.65;74.64;98955.44;6186356;23;20537;-73
2023/01/18 12:34:19;;;;;;;8.55;6.50;;;;;;;2.47;74.74;98961.31;6188004;23;20150;-73
2023/01/18 12:37:14;;;;;;;10.38;5.80;;;;;;;2.62;74.33;98960.13;6185346;23;20217;-72